| time (UTC) | temp F | wind direction | speed knots | gust knots | rain 1hr in | rain 24hr in | rain mn in | humidity % | barometer mb |
| 20260508104546 | 41 | 0 | 0.0 | 0.0 | 0.00 | 0.00 | 0.00 | 96 | 1019.6 |
| 20260508103049 | 41 | 0 | 0.0 | 0.0 | 0.00 | 0.00 | 0.00 | 96 | 1019.4 |
| 20260508101553 | 42 | 0 | 0.0 | 0.0 | 0.00 | 0.00 | 0.00 | 96 | 1019.2 |
| 20260508100047 | 42 | 0 | 0.0 | 0.0 | 0.00 | 0.00 | 0.00 | 96 | 1019.0 |
| 20260508094547 | 43 | 0 | 0.0 | 0.0 | 0.00 | 0.00 | 0.00 | 96 | 1018.9 |
| 20260508093048 | 43 | 0 | 0.0 | 0.0 | 0.00 | 0.00 | 0.00 | 96 | 1019.0 |
| 20260508091556 | 43 | 0 | 0.0 | 0.0 | 0.00 | 0.00 | 0.00 | 95 | 1018.8 |
| 20260508090057 | 44 | 0 | 0.0 | 0.0 | 0.00 | 0.00 | 0.00 | 95 | 1018.6 |
| 20260508084549 | 44 | 0 | 0.0 | 0.0 | 0.00 | 0.00 | 0.00 | 96 | 1018.4 |
| 20260508083050 | 45 | 0 | 0.0 | 0.0 | 0.00 | 0.00 | 0.00 | 95 | 1018.4 |
| 20260508081550 | 45 | 0 | 0.0 | 0.0 | 0.00 | 0.00 | 0.00 | 95 | 1018.2 |
| 20260508080053 | 45 | 0 | 0.0 | 0.0 | 0.00 | 0.00 | 0.00 | 96 | 1018.3 |
| 20260508074550 | 45 | 0 | 0.0 | 0.0 | 0.00 | 0.00 | 0.00 | 95 | 1018.3 |
| 20260508073050 | 45 | 0 | 0.0 | 0.0 | 0.00 | 0.00 | 0.00 | 94 | 1018.2 |
| 20260508071548 | 46 | 0 | 0.0 | 0.0 | 0.00 | 0.00 | 0.00 | 94 | 1018.1 |
| 20260508070053 | 46 | 0 | 0.0 | 0.0 | 0.00 | 0.00 | 0.00 | 94 | 1018.1 |
| 20260508064555 | 47 | 0 | 0.0 | 0.0 | 0.00 | 0.00 | 0.00 | 94 | 1018.1 |
| 20260508063049 | 47 | 0 | 0.0 | 0.0 | 0.00 | 0.00 | 0.00 | 94 | 1018.2 |
| 20260508061548 | 48 | 0 | 0.0 | 0.0 | 0.00 | 0.00 | 0.00 | 93 | 1018.1 |
| 20260508060047 | 49 | 0 | 0.0 | 0.0 | 0.00 | 0.00 | 0.00 | 93 | 1018.1 |
| 20260508054544 | 49 | 0 | 0.0 | 0.0 | 0.00 | 0.00 | 0.00 | 93 | 1017.9 |
| 20260508053042 | 50 | 0 | 0.0 | 0.0 | 0.00 | 0.00 | 0.00 | 93 | 1017.9 |
| 20260508051559 | 50 | 0 | 0.0 | 0.0 | 0.00 | 0.00 | 0.00 | 91 | 1017.9 |
| 20260508050046 | 50 | 0 | 0.0 | 0.9 | 0.00 | 0.00 | 0.00 | 91 | 1017.8 |
| 20260508044545 | 51 | 0 | 0.0 | 0.0 | 0.00 | 0.00 | 0.00 | 90 | 1017.5 |
| 20260508043050 | 52 | 0 | 0.0 | 0.0 | 0.00 | 0.00 | 0.00 | 89 | 1017.4 |
| 20260508041550 | 53 | 0 | 0.0 | 0.0 | 0.00 | 0.00 | 0.00 | 88 | 1017.4 |
| 20260508040051 | 54 | 0 | 0.0 | 0.0 | 0.00 | 0.00 | 0.00 | 86 | 1017.2 |
| 20260508034550 | 55 | 0 | 0.0 | 0.0 | 0.00 | 0.00 | 0.00 | 84 | 1016.9 |
| 20260508033051 | 57 | 0 | 0.0 | 0.0 | 0.00 | 0.00 | 0.00 | 81 | 1016.7 |
| 20260508031545 | 59 | 0 | 0.0 | 0.0 | 0.00 | 0.00 | 0.00 | 77 | 1016.5 |
| 20260508030052 | 61 | 0 | 0.0 | 0.0 | 0.00 | 0.00 | 0.00 | 73 | 1016.4 |
| 20260508024556 | 63 | 0 | 0.0 | 0.0 | 0.00 | 0.00 | 0.00 | 69 | 1016.2 |
| 20260508023048 | 66 | 0 | 0.0 | 0.0 | 0.00 | 0.00 | 0.00 | 63 | 1016.2 |
| 20260508021547 | 69 | 0 | 0.0 | 0.0 | 0.00 | 0.00 | 0.00 | 55 | 1016.2 |
| 20260508020053 | 71 | 0 | 0.0 | 1.7 | 0.00 | 0.00 | 0.00 | 48 | 1016.4 |
| 20260508014552 | 72 | 0 | 0.0 | 3.5 | 0.00 | 0.00 | 0.00 | 46 | 1016.5 |
| 20260508013054 | 73 | 0 | 0.0 | 0.9 | 0.00 | 0.00 | 0.00 | 46 | 1016.6 |
| 20260508011605 | 73 | 299 | 0.0 | 2.6 | 0.00 | 0.00 | 0.00 | 43 | 1016.7 |
| 20260508010045 | 72 | 252 | 0.9 | 3.5 | 0.00 | 0.00 | 0.00 | 45 | 1016.9 |
| 20260508004555 | 72 | 290 | 0.9 | 2.6 | 0.00 | 0.00 | 0.00 | 45 | 1017.0 |
| 20260508003047 | 72 | 294 | 0.0 | 3.5 | 0.00 | 0.00 | 0.00 | 42 | 1017.0 |
| 20260508001550 | 71 | 0 | 1.7 | 4.3 | 0.00 | 0.00 | 0.00 | 58 | 1017.1 |
| 20260508000052 | 71 | 274 | 0.9 | 6.1 | 0.00 | 0.00 | 0.00 | 63 | 1017.3 |
| 20260507234555 | 71 | 0 | 0.9 | 5.2 | 0.00 | 0.00 | 0.00 | 65 | 1017.2 |
| 20260507233045 | 70 | 233 | 0.9 | 7.0 | 0.00 | 0.00 | 0.00 | 68 | 1017.3 |
| 20260507231551 | 70 | 304 | 1.7 | 7.0 | 0.00 | 0.00 | 0.00 | 65 | 1017.4 |
| 20260507230048 | 70 | 250 | 0.9 | 5.2 | 0.00 | 0.00 | 0.00 | 65 | 1017.6 |
| 20260507224548 | 70 | 311 | 0.9 | 7.8 | 0.00 | 0.00 | 0.00 | 65 | 1017.8 |
| 20260507223043 | 70 | 278 | 1.7 | 4.3 | 0.00 | 0.00 | 0.00 | 64 | 1017.9 |
| 20260507221550 | 69 | 269 | 1.7 | 4.3 | 0.00 | 0.00 | 0.00 | 63 | 1018.1 |
| 20260507220047 | 69 | 290 | 1.7 | 6.1 | 0.00 | 0.00 | 0.00 | 64 | 1018.2 |
| 20260507214546 | 68 | 300 | 0.0 | 5.2 | 0.00 | 0.00 | 0.00 | 66 | 1018.3 |
| 20260507213048 | 68 | 233 | 0.9 | 5.2 | 0.00 | 0.00 | 0.00 | 67 | 1018.5 |
| 20260507211554 | 68 | 221 | 0.9 | 6.1 | 0.00 | 0.00 | 0.00 | 67 | 1018.7 |
| 20260507210056 | 67 | 297 | 0.9 | 6.1 | 0.00 | 0.00 | 0.00 | 68 | 1019.0 |
| 20260507204553 | 67 | 305 | 0.9 | 2.6 | 0.00 | 0.00 | 0.00 | 67 | 1019.2 |
| 20260507203058 | 65 | 295 | 0.9 | 4.3 | 0.00 | 0.00 | 0.00 | 69 | 1019.4 |
| 20260507201556 | 65 | 279 | 0.9 | 3.5 | 0.00 | 0.00 | 0.00 | 69 | 1019.6 |
| 20260507200057 | 65 | 239 | 0.0 | 2.6 | 0.00 | 0.00 | 0.00 | 66 | 1019.7 |
| 20260507194551 | 66 | 293 | 0.0 | 2.6 | 0.00 | 0.00 | 0.00 | 69 | 1019.7 |
| 20260507193054 | 65 | 0 | 0.0 | 3.5 | 0.00 | 0.00 | 0.00 | 71 | 1019.8 |
| 20260507191551 | 63 | 240 | 0.9 | 4.3 | 0.00 | 0.00 | 0.00 | 70 | 1020.2 |
| 20260507190047 | 62 | 0 | 0.0 | 2.6 | 0.00 | 0.00 | 0.00 | 79 | 1020.2 |
| 20260507184548 | 61 | 0 | 0.0 | 2.6 | 0.00 | 0.00 | 0.00 | 77 | 1020.2 |
| 20260507183049 | 60 | 227 | 0.0 | 2.6 | 0.00 | 0.00 | 0.00 | 78 | 1020.3 |
| 20260507181547 | 60 | 0 | 0.0 | 0.9 | 0.00 | 0.00 | 0.00 | 78 | 1020.4 |
| 20260507180047 | 59 | 300 | 0.0 | 1.7 | 0.00 | 0.00 | 0.00 | 79 | 1020.5 |
| 20260507174558 | 58 | 248 | 0.0 | 1.7 | 0.00 | 0.00 | 0.00 | 82 | 1020.5 |
| 20260507173047 | 57 | 0 | 0.0 | 0.9 | 0.00 | 0.00 | 0.00 | 84 | 1020.7 |
| 20260507171559 | 56 | 0 | 0.0 | 0.9 | 0.00 | 0.00 | 0.00 | 84 | 1020.8 |
| 20260507170055 | 55 | 250 | 0.0 | 0.9 | 0.00 | 0.00 | 0.00 | 86 | 1020.6 |
| 20260507164544 | 54 | 0 | 0.0 | 0.0 | 0.00 | 0.00 | 0.00 | 87 | 1020.7 |
| 20260507163050 | 54 | 0 | 0.0 | 0.9 | 0.00 | 0.00 | 0.00 | 88 | 1020.7 |
| 20260507161547 | 54 | 243 | 0.0 | 0.9 | 0.00 | 0.00 | 0.00 | 88 | 1020.8 |
| 20260507160049 | 54 | 0 | 0.0 | 0.9 | 0.00 | 0.00 | 0.00 | 89 | 1020.8 |
| 20260507154547 | 53 | 0 | 0.0 | 0.9 | 0.00 | 0.00 | 0.00 | 90 | 1020.9 |
| 20260507153045 | 52 | 0 | 0.0 | 0.9 | 0.00 | 0.00 | 0.00 | 90 | 1020.9 |
| 20260507151552 | 52 | 0 | 0.0 | 0.9 | 0.00 | 0.00 | 0.00 | 91 | 1021.0 |
| 20260507150050 | 52 | 245 | 0.0 | 0.9 | 0.00 | 0.00 | 0.00 | 92 | 1020.9 |
| 20260507144612 | 52 | 0 | 0.0 | 0.9 | 0.00 | 0.00 | 0.00 | 91 | 1020.9 |
| 20260507143049 | 51 | 240 | 0.0 | 0.9 | 0.00 | 0.00 | 0.00 | 92 | 1020.9 |
| 20260507141606 | 51 | 0 | 0.0 | 0.9 | 0.00 | 0.00 | 0.00 | 93 | 1020.8 |
| 20260507140045 | 51 | 0 | 0.0 | 0.0 | 0.00 | 0.00 | 0.00 | 93 | 1020.7 |
| 20260507134547 | 51 | 0 | 0.0 | 0.0 | 0.00 | 0.00 | 0.00 | 93 | 1020.6 |
| 20260507133051 | 50 | 0 | 0.0 | 0.0 | 0.00 | 0.00 | 0.00 | 93 | 1020.5 |
| 20260507131547 | 50 | 0 | 0.0 | 0.0 | 0.00 | 0.00 | 0.00 | 93 | 1020.6 |
| 20260507130047 | 50 | 0 | 0.0 | 0.0 | 0.00 | 0.00 | 0.00 | 93 | 1020.7 |
| 20260507124551 | 50 | 238 | 0.0 | 0.0 | 0.00 | 0.00 | 0.00 | 93 | 1020.8 |
| 20260507123050 | 50 | 0 | 0.0 | 0.0 | 0.00 | 0.00 | 0.00 | 93 | 1020.9 |
| 20260507121548 | 50 | 0 | 0.0 | 0.0 | 0.00 | 0.00 | 0.00 | 93 | 1021.0 |
| 20260507120050 | 50 | 0 | 0.0 | 0.0 | 0.00 | 0.00 | 0.00 | 93 | 1021.0 |
| 20260507114555 | 50 | 0 | 0.0 | 0.0 | 0.00 | 0.00 | 0.00 | 93 | 1021.1 |
| 20260507113047 | 50 | 0 | 0.0 | 0.0 | 0.00 | 0.00 | 0.00 | 93 | 1021.3 |
| 20260507111550 | 50 | 0 | 0.0 | 0.9 | 0.00 | 0.00 | 0.00 | 93 | 1021.2 |
| 20260507110054 | 50 | 0 | 0.0 | 0.9 | 0.00 | 0.00 | 0.00 | 92 | 1021.2 |